Time;durP1;ratioP1;P1;durP2;ratioP2;P2;SDS_P1;SDS_P2;PMS_P1;PMS_P2;Temp;Humidity;BMP_temperature;BMP_pressure;BME280_temperature;BME280_humidity;BME280_pressure;Samples;Min_cycle;Max_cycle;Signal;HPM_P1;HPM_P2
2022/08/01 00:00:06;;;;;;;1.42;0.90;;;23.40;99.90;;;;;;5025720;28;20111;-82
2022/08/01 00:02:38;;;;;;;2.13;1.13;;;23.40;99.90;;;;;;5027336;28;20053;-81
2022/08/01 00:05:07;;;;;;;4.78;1.13;;;23.40;99.90;;;;;;5028772;28;20466;-82
2022/08/01 00:07:34;;;;;;;1.70;1.10;;;23.30;99.90;;;;;;5022940;28;20084;-82
2022/08/01 00:10:06;;;;;;;2.40;1.50;;;23.30;99.90;;;;;;5029156;28;20099;-82
2022/08/01 00:12:33;;;;;;;2.72;1.20;;;23.30;99.90;;;;;;5030115;28;20053;-80
2022/08/01 00:15:00;;;;;;;1.85;1.30;;;23.30;99.90;;;;;;5030664;28;20046;-81
2022/08/01 00:17:27;;;;;;;2.38;1.50;;;23.30;99.90;;;;;;5035096;28;20068;-81
2022/08/01 00:19:54;;;;;;;1.85;1.38;;;23.20;99.90;;;;;;5030859;28;20077;-82
2022/08/01 00:22:20;;;;;;;4.75;1.40;;;23.30;99.90;;;;;;5035051;28;20117;-81
2022/08/01 00:24:47;;;;;;;4.07;1.40;;;23.20;99.90;;;;;;5040848;28;20061;-81
2022/08/01 00:27:14;;;;;;;4.40;1.40;;;23.20;99.90;;;;;;5041052;28;20062;-81
2022/08/01 00:29:41;;;;;;;4.93;1.58;;;23.20;99.90;;;;;;5041223;28;20045;-81
2022/08/01 00:32:31;;;;;;;3.80;1.67;;;23.20;99.90;;;;;;5044900;28;20109;-81
2022/08/01 00:34:57;;;;;;;3.10;1.50;;;23.20;99.90;;;;;;5038492;28;20084;-81
2022/08/01 00:37:24;;;;;;;2.60;1.60;;;23.20;99.90;;;;;;5042527;28;20045;-82
2022/08/01 00:39:51;;;;;;;3.20;1.45;;;23.20;99.90;;;;;;5037207;28;20500;-82
2022/08/01 00:42:18;;;;;;;2.05;1.63;;;23.10;99.90;;;;;;5036801;28;20073;-83
2022/08/01 00:44:45;;;;;;;5.40;1.70;;;23.10;99.90;;;;;;5034290;28;20056;-82
2022/08/01 00:47:11;;;;;;;1.90;1.50;;;23.10;99.90;;;;;;5037207;28;20049;-82
2022/08/01 00:49:38;;;;;;;1.88;1.77;;;23.10;99.90;;;;;;5034711;28;20498;-82
2022/08/01 00:52:05;;;;;;;4.13;1.67;;;23.10;99.90;;;;;;5031139;28;20101;-82
2022/08/01 00:54:33;;;;;;;2.30;1.88;;;23.10;99.90;;;;;;5032579;28;20068;-82
2022/08/01 00:57:00;;;;;;;3.40;2.03;;;23.10;99.90;;;;;;5033066;28;20073;-82
2022/08/01 00:59:26;;;;;;;2.28;2.05;;;23.00;99.90;;;;;;5032006;28;20065;-82
2022/08/01 01:01:53;;;;;;;7.60;1.92;;;23.00;99.90;;;;;;5035519;28;20524;-82
2022/08/01 01:04:22;;;;;;;4.78;1.83;;;23.00;99.90;;;;;;5029605;28;20075;-82
2022/08/01 01:06:58;;;;;;;3.67;2.00;;;23.00;99.90;;;;;;5033618;28;20049;-82
2022/08/01 01:09:47;;;;;;;4.32;2.80;;;22.90;99.90;;;;;;5033327;28;20060;-82
2022/08/01 01:12:32;;;;;;;3.88;2.00;;;22.90;99.90;;;;;;5032516;28;20080;-83
2022/08/01 01:15:30;;;;;;;4.57;2.30;;;22.80;99.90;;;;;;5032469;28;20046;-82
2022/08/01 01:18:01;;;;;;;3.70;2.58;;;22.80;99.90;;;;;;5027927;28;20070;-82
2022/08/01 01:20:33;;;;;;;3.38;2.55;;;22.80;99.90;;;;;;5026087;28;20049;-82
2022/08/01 01:23:10;;;;;;;3.25;2.25;;;22.80;99.90;;;;;;5032130;28;20045;-83
2022/08/01 01:25:36;;;;;;;4.95;2.55;;;22.70;99.90;;;;;;5026162;28;20069;-81
2022/08/01 01:28:53;;;;;;;4.68;2.70;;;22.70;99.90;;;;;;5032635;28;20049;-82
2022/08/01 01:31:22;;;;;;;4.88;2.78;;;22.60;99.90;;;;;;5031007;28;20115;-82
2022/08/01 01:33:51;;;;;;;2.70;2.35;;;22.60;99.90;;;;;;5031815;28;20132;-82
2022/08/01 01:36:20;;;;;;;4.32;2.78;;;22.60;99.90;;;;;;5036054;28;20112;-82
2022/08/01 01:38:47;;;;;;;12.63;3.65;;;22.60;99.90;;;;;;5035060;28;20117;-82
2022/08/01 01:41:17;;;;;;;4.85;3.28;;;22.60;99.90;;;;;;5032501;28;20073;-82
2022/08/01 01:43:46;;;;;;;3.83;2.60;;;22.50;99.90;;;;;;5036825;28;20535;-82
2022/08/01 01:46:17;;;;;;;6.85;2.75;;;22.50;99.90;;;;;;5037695;28;20050;-82
2022/08/01 01:48:47;;;;;;;2.65;2.40;;;22.50;99.90;;;;;;5038385;28;20053;-82
2022/08/01 01:51:16;;;;;;;6.97;2.83;;;22.40;99.90;;;;;;5040743;28;20076;-81
2022/08/01 01:53:44;;;;;;;2.80;2.60;;;22.40;99.90;;;;;;5039262;28;20053;-82
2022/08/01 01:56:14;;;;;;;4.90;2.80;;;22.30;99.90;;;;;;5038266;28;20054;-82
2022/08/01 01:58:43;;;;;;;3.42;3.13;;;22.40;99.90;;;;;;5040572;28;20049;-82
2022/08/01 02:01:11;;;;;;;2.95;2.47;;;22.40;99.90;;;;;;5039614;28;20101;-81
2022/08/01 02:03:43;;;;;;;4.70;2.88;;;22.30;99.90;;;;;;5038783;28;20084;-82
2022/08/01 02:06:13;;;;;;;2.97;2.67;;;22.30;99.90;;;;;;5041389;28;20050;-82
2022/08/01 02:08:41;;;;;;;3.45;2.92;;;22.20;99.90;;;;;;5034677;28;20366;-81
2022/08/01 02:11:21;;;;;;;5.38;3.13;;;22.20;99.90;;;;;;5037032;28;20053;-82
2022/08/01 02:13:58;;;;;;;2.93;2.63;;;22.20;99.90;;;;;;5038427;28;20050;-82
2022/08/01 02:16:28;;;;;;;4.70;2.90;;;22.20;99.90;;;;;;5033230;28;20343;-82
2022/08/01 02:18:55;;;;;;;4.55;3.10;;;22.10;99.90;;;;;;5034636;28;20104;-82
2022/08/01 02:21:34;;;;;;;4.57;2.95;;;22.10;99.90;;;;;;5033674;28;20049;-81
2022/08/01 02:24:24;;;;;;;3.65;2.47;;;22.10;99.90;;;;;;5024506;28;20144;-81
2022/08/01 02:27:01;;;;;;;4.68;2.97;;;22.10;99.90;;;;;;5032013;28;20072;-82
2022/08/01 02:29:38;;;;;;;5.05;3.05;;;22.10;99.90;;;;;;5028630;28;20049;-81
2022/08/01 02:32:07;;;;;;;3.22;2.90;;;22.10;99.90;;;;;;5025947;28;20072;-81
2022/08/01 02:34:35;;;;;;;3.63;3.33;;;22.10;99.90;;;;;;5030445;28;20511;-81
2022/08/01 02:37:04;;;;;;;5.75;3.00;;;22.10;99.90;;;;;;5031993;28;20065;-81
2022/08/01 02:39:34;;;;;;;5.90;3.03;;;22.00;99.90;;;;;;5037582;28;20077;-82
2022/08/01 02:42:07;;;;;;;2.95;2.65;;;22.00;99.90;;;;;;5035588;28;20471;-82
2022/08/01 02:44:39;;;;;;;4.85;3.03;;;22.00;99.90;;;;;;5033308;28;20119;-81
2022/08/01 02:47:06;;;;;;;4.60;3.38;;;21.90;99.90;;;;;;5034713;28;20049;-81
2022/08/01 02:49:45;;;;;;;10.73;6.05;;;21.90;99.90;;;;;;5027616;28;20132;-82
2022/08/01 02:52:21;;;;;;;6.55;4.03;;;21.80;99.90;;;;;;5029492;28;20443;-81
2022/08/01 02:54:51;;;;;;;3.58;3.15;;;21.80;99.90;;;;;;5033203;28;20084;-81
2022/08/01 02:57:20;;;;;;;5.20;3.22;;;21.80;99.90;;;;;;5036765;28;20107;-81
2022/08/01 02:59:50;;;;;;;4.28;3.47;;;21.80;99.90;;;;;;5015411;28;20046;-83
2022/08/01 03:02:18;;;;;;;6.63;3.83;;;21.70;99.90;;;;;;5036037;28;20450;-82
2022/08/01 03:04:47;;;;;;;5.78;4.00;;;21.70;99.90;;;;;;5035519;28;20060;-82
2022/08/01 03:07:15;;;;;;;7.85;4.32;;;21.60;99.90;;;;;;5033321;28;20073;-82
2022/08/01 03:09:45;;;;;;;5.53;3.85;;;21.50;99.90;;;;;;5028942;28;20054;-82
2022/08/01 03:12:15;;;;;;;4.68;3.92;;;21.50;99.90;;;;;;5034529;28;20411;-82
2022/08/01 03:14:44;;;;;;;3.50;3.10;;;21.50;99.90;;;;;;5034534;28;20092;-82
2022/08/01 03:17:14;;;;;;;3.75;3.35;;;21.50;99.90;;;;;;5038624;28;20042;-81
2022/08/01 03:19:45;;;;;;;4.05;3.60;;;21.40;99.90;;;;;;5037534;28;20081;-81
2022/08/01 03:22:13;;;;;;;6.72;3.72;;;21.40;99.90;;;;;;5036141;28;20428;-82
2022/08/01 03:24:41;;;;;;;7.68;3.88;;;21.30;99.90;;;;;;5034572;28;20049;-82
2022/08/01 03:27:09;;;;;;;5.22;3.40;;;21.30;99.90;;;;;;5035552;28;20049;-82
2022/08/01 03:29:39;;;;;;;5.85;3.75;;;21.30;99.90;;;;;;5030148;28;20050;-82
2022/08/01 03:32:07;;;;;;;3.58;3.28;;;21.30;99.90;;;;;;5035953;28;20069;-81
2022/08/01 03:34:34;;;;;;;4.97;4.07;;;21.20;99.90;;;;;;5036343;28;20530;-81
2022/08/01 03:37:09;;;;;;;4.95;3.28;;;21.10;99.90;;;;;;5030694;28;20137;-81
2022/08/01 03:39:48;;;;;;;4.80;3.53;;;21.10;99.90;;;;;;5040786;28;20058;-82
2022/08/01 03:42:24;;;;;;;4.35;3.42;;;21.10;99.90;;;;;;5028107;28;20053;-81
2022/08/01 03:44:57;;;;;;;9.00;3.50;;;21.00;99.90;;;;;;5027596;28;20077;-81
2022/08/01 03:47:29;;;;;;;6.53;3.75;;;21.00;99.90;;;;;;5029769;28;20049;-81
2022/08/01 03:49:58;;;;;;;3.92;3.47;;;21.00;99.90;;;;;;5025635;28;20081;-82
2022/08/01 03:52:27;;;;;;;5.00;3.78;;;21.00;99.90;;;;;;5030056;28;20049;-82
2022/08/01 03:54:56;;;;;;;5.20;3.47;;;21.00;99.90;;;;;;5031836;28;20046;-83
2022/08/01 03:57:25;;;;;;;7.28;3.25;;;20.90;99.90;;;;;;5030082;28;20134;-82
2022/08/01 04:00:07;;;;;;;6.20;3.60;;;20.90;99.90;;;;;;5028138;28;20069;-81
2022/08/01 04:02:34;;;;;;;6.88;3.33;;;20.90;99.90;;;;;;5030758;28;20046;-82
2022/08/01 04:05:02;;;;;;;9.77;3.55;;;20.80;99.90;;;;;;5033113;28;20072;-82
2022/08/01 04:07:31;;;;;;;3.80;3.50;;;20.70;99.90;;;;;;5030124;28;20053;-82
2022/08/01 04:09:58;;;;;;;4.97;3.75;;;20.70;99.90;;;;;;5031249;28;20092;-82
2022/08/01 04:12:25;;;;;;;4.07;3.03;;;20.80;99.90;;;;;;5032338;28;20431;-82
2022/08/01 04:14:52;;;;;;;5.25;3.83;;;20.70;99.90;;;;;;5028144;28;20073;-82
2022/08/01 04:17:19;;;;;;;3.85;3.25;;;20.70;99.90;;;;;;5033400;28;20460;-82
2022/08/01 04:19:45;;;;;;;3.90;3.50;;;20.70;99.90;;;;;;5030954;28;20057;-83
2022/08/01 04:22:15;;;;;;;4.68;3.58;;;20.70;99.90;;;;;;5030496;28;20084;-81
2022/08/01 04:24:50;;;;;;;3.67;3.20;;;20.70;99.90;;;;;;5031445;28;20076;-81
2022/08/01 04:27:35;;;;;;;4.05;3.60;;;20.60;99.90;;;;;;5029240;28;20048;-79
2022/08/01 04:30:26;;;;;;;5.35;3.65;;;20.60;99.90;;;;;;5030109;28;20393;-81
2022/08/01 04:32:57;;;;;;;6.47;3.40;;;20.50;99.90;;;;;;5030908;28;20046;-82
2022/08/01 04:35:24;;;;;;;;;;;20.60;99.90;;;;;;5026219;28;20050;-82
2022/08/01 04:38:16;;;;;;;4.70;3.67;;;20.60;99.90;;;;;;5023704;28;19925;-82
2022/08/01 04:40:45;;;;;;;4.78;3.40;;;20.50;99.90;;;;;;5030720;28;20053;-82
2022/08/01 04:43:12;;;;;;;7.10;3.40;;;20.60;99.90;;;;;;5031127;28;20085;-82
2022/08/01 04:45:43;;;;;;;3.25;2.80;;;20.50;99.90;;;;;;5028291;28;20370;-82
2022/08/01 04:48:10;;;;;;;5.68;3.90;;;20.40;99.90;;;;;;5024813;28;20566;-82
2022/08/01 04:50:37;;;;;;;6.00;3.67;;;20.50;99.90;;;;;;5026675;28;20091;-82
2022/08/01 04:53:04;;;;;;;5.28;3.63;;;20.50;99.90;;;;;;5023777;28;20081;-82
2022/08/01 04:55:31;;;;;;;4.90;3.42;;;20.40;99.90;;;;;;5027958;28;20046;-83
2022/08/01 04:57:58;;;;;;;6.40;3.30;;;20.50;99.90;;;;;;5030550;28;20132;-82
2022/08/01 05:00:25;;;;;;;8.43;3.42;;;20.50;99.90;;;;;;5023718;28;20042;-82
2022/08/01 05:02:52;;;;;;;4.20;3.40;;;20.60;99.90;;;;;;5028433;28;20077;-82
2022/08/01 05:05:20;;;;;;;5.20;3.50;;;20.70;99.90;;;;;;5026347;28;20492;-81
2022/08/01 05:07:47;;;;;;;5.15;3.85;;;20.70;99.90;;;;;;5024129;28;20117;-80
2022/08/01 05:10:14;;;;;;;5.32;3.25;;;20.80;99.90;;;;;;5028985;28;20095;-81
2022/08/01 05:12:40;;;;;;;4.63;3.42;;;20.90;99.90;;;;;;5026972;28;20061;-81
2022/08/01 05:15:08;;;;;;;5.88;3.80;;;20.90;99.90;;;;;;5032276;28;20046;-80
2022/08/01 05:17:44;;;;;;;4.15;3.25;;;21.00;99.90;;;;;;5028491;28;20050;-80
2022/08/01 05:20:11;;;;;;;6.40;2.72;;;21.10;99.90;;;;;;5025256;28;20092;-81
2022/08/01 05:22:38;;;;;;;5.82;3.42;;;21.20;99.90;;;;;;5030429;28;20128;-81
2022/08/01 05:25:06;;;;;;;4.35;3.03;;;21.30;99.90;;;;;;5030582;28;20123;-80
2022/08/01 05:27:38;;;;;;;6.30;3.45;;;21.40;99.90;;;;;;5032651;28;20057;-81
2022/08/01 05:30:09;;;;;;;3.15;2.58;;;21.50;99.90;;;;;;5033478;28;20107;-81
2022/08/01 05:32:36;;;;;;;5.28;3.08;;;21.50;99.90;;;;;;5027781;28;20106;-80
2022/08/01 05:35:04;;;;;;;3.88;2.90;;;21.50;99.90;;;;;;5032842;28;20107;-81
2022/08/01 05:37:31;;;;;;;6.20;2.80;;;21.50;99.90;;;;;;5031075;28;20515;-81
2022/08/01 05:39:57;;;;;;;3.65;3.15;;;21.50;99.90;;;;;;5029972;28;20050;-81
2022/08/01 05:42:24;;;;;;;6.88;2.90;;;21.60;99.90;;;;;;5032027;28;20132;-81
2022/08/01 05:44:51;;;;;;;4.10;2.70;;;21.60;99.90;;;;;;5028744;28;20054;-81
2022/08/01 05:47:18;;;;;;;4.55;2.92;;;21.60;99.90;;;;;;5032322;28;20510;-81
2022/08/01 05:49:45;;;;;;;4.53;2.80;;;21.70;99.90;;;;;;5027632;28;20072;-80
2022/08/01 05:52:13;;;;;;;7.13;2.85;;;21.70;99.90;;;;;;5031737;28;20081;-81
2022/08/01 05:54:40;;;;;;;3.00;2.67;;;21.80;99.90;;;;;;5029271;28;20054;-80
2022/08/01 05:57:07;;;;;;;5.38;2.83;;;21.80;99.90;;;;;;5032417;28;20049;-81
2022/08/01 05:59:33;;;;;;;5.43;3.33;;;21.80;99.90;;;;;;5033172;28;20077;-79
2022/08/01 06:02:00;;;;;;;7.93;2.88;;;21.90;99.90;;;;;;5037465;28;20069;-80
2022/08/01 06:04:27;;;;;;;6.10;3.10;;;21.90;99.90;;;;;;5040372;28;20419;-78
2022/08/01 06:06:54;;;;;;;4.90;2.95;;;21.90;99.90;;;;;;5033720;28;20069;-81
2022/08/01 06:09:21;;;;;;;4.53;2.90;;;22.10;99.90;;;;;;5027530;28;20053;-80
2022/08/01 06:11:48;;;;;;;7.20;3.15;;;22.00;99.90;;;;;;5031538;28;20056;-80
2022/08/01 06:14:14;;;;;;;3.70;2.78;;;22.10;99.90;;;;;;5028080;28;20128;-80
2022/08/01 06:16:41;;;;;;;4.32;2.95;;;22.10;99.90;;;;;;5031097;28;20053;-80
2022/08/01 06:19:08;;;;;;;4.60;3.28;;;22.10;99.90;;;;;;5032849;28;20046;-81
2022/08/01 06:21:34;;;;;;;3.33;3.03;;;22.20;99.90;;;;;;5029322;28;20503;-81
2022/08/01 06:24:01;;;;;;;5.47;3.05;;;22.20;99.90;;;;;;5027222;28;20088;-80
2022/08/01 06:26:28;;;;;;;4.57;2.72;;;22.20;99.90;;;;;;5031506;28;20339;-81
2022/08/01 06:28:54;;;;;;;3.20;2.88;;;22.30;99.90;;;;;;5026661;28;20054;-83
2022/08/01 06:31:21;;;;;;;6.15;2.60;;;22.30;99.90;;;;;;5030332;28;20107;-80
2022/08/01 06:33:48;;;;;;;6.70;2.83;;;22.30;99.90;;;;;;5028197;28;20046;-80
2022/08/01 06:36:15;;;;;;;3.88;2.10;;;22.30;99.90;;;;;;5028157;28;20226;-80
2022/08/01 06:38:41;;;;;;;4.15;2.55;;;22.40;99.90;;;;;;5029445;28;20049;-80
2022/08/01 06:41:08;;;;;;;3.60;2.50;;;22.40;99.90;;;;;;5024653;28;20073;-80
2022/08/01 06:43:35;;;;;;;4.22;2.20;;;22.40;99.90;;;;;;5027613;28;20121;-80
2022/08/01 06:46:02;;;;;;;4.35;2.83;;;22.40;99.90;;;;;;5030626;28;20136;-79
2022/08/01 06:48:28;;;;;;;4.95;2.65;;;22.40;99.90;;;;;;5032331;28;20494;-79
2022/08/01 06:51:07;;;;;;;5.05;2.40;;;22.40;99.90;;;;;;5030042;28;20049;-81
2022/08/01 06:53:36;;;;;;;4.18;2.50;;;22.40;99.90;;;;;;5040498;28;20501;-80
2022/08/01 06:56:04;;;;;;;6.28;2.40;;;22.40;99.90;;;;;;5028163;28;20080;-80
2022/08/01 06:58:31;;;;;;;4.85;2.10;;;22.50;99.90;;;;;;5024996;28;20495;-80
2022/08/01 07:00:58;;;;;;;7.05;3.15;;;22.50;99.90;;;;;;5026732;28;20081;-80
2022/08/01 07:03:25;;;;;;;12.10;3.05;;;22.50;99.90;;;;;;5023166;28;20045;-80
2022/08/01 07:06:12;;;;;;;3.08;2.70;;;22.50;99.90;;;;;;5026218;28;20440;-80
2022/08/01 07:08:40;;;;;;;4.88;2.72;;;22.60;99.90;;;;;;5029043;28;20397;-80
2022/08/01 07:11:07;;;;;;;6.20;2.10;;;22.60;99.90;;;;;;5027381;28;20060;-80
2022/08/01 07:13:34;;;;;;;6.22;2.58;;;22.70;99.90;;;;;;5033028;28;20072;-80
2022/08/01 07:16:12;;;;;;;4.28;2.85;;;22.70;99.90;;;;;;5022840;28;20049;-81
2022/08/01 07:18:38;;;;;;;3.20;2.53;;;22.80;99.90;;;;;;5028615;28;20628;-79
2022/08/01 07:21:05;;;;;;;4.97;2.40;;;22.80;99.90;;;;;;5026477;28;20132;-80
2022/08/01 07:23:42;;;;;;;2.90;2.60;;;22.80;99.90;;;;;;5030495;28;20053;-80
2022/08/01 07:26:13;;;;;;;4.03;2.13;;;22.90;99.90;;;;;;5017490;28;20109;-80
2022/08/01 07:28:39;;;;;;;3.72;2.33;;;22.90;99.90;;;;;;5025012;28;20053;-81
2022/08/01 07:31:09;;;;;;;2.60;2.30;;;23.00;99.90;;;;;;5026654;28;20069;-80
2022/08/01 07:33:36;;;;;;;3.17;2.28;;;23.00;99.90;;;;;;5029894;28;20132;-81
2022/08/01 07:36:15;;;;;;;4.65;2.55;;;23.10;99.90;;;;;;5028892;28;20576;-81
2022/08/01 07:38:42;;;;;;;3.70;2.33;;;23.10;99.90;;;;;;5029172;28;20049;-81
2022/08/01 07:41:09;;;;;;;6.30;3.00;;;23.10;99.90;;;;;;5026887;28;20046;-80
2022/08/01 07:43:36;;;;;;;4.05;2.72;;;23.20;99.90;;;;;;5029901;28;20049;-80
2022/08/01 07:46:06;;;;;;;3.80;2.78;;;23.20;99.90;;;;;;5028052;28;20507;-80
2022/08/01 07:48:33;;;;;;;;;;;23.30;99.90;;;;;;5027092;28;20428;-81
2022/08/01 07:50:59;;;;;;;4.93;2.60;;;23.30;99.90;;;;;;5028018;28;19968;-82
2022/08/01 07:53:26;;;;;;;2.80;2.47;;;23.40;99.90;;;;;;5030393;28;20046;-82
2022/08/01 07:55:53;;;;;;;6.90;2.63;;;23.40;99.90;;;;;;5025847;28;20128;-82
2022/08/01 07:58:21;;;;;;;4.35;2.70;;;23.40;99.90;;;;;;5028330;28;20136;-80
2022/08/01 08:00:47;;;;;;;4.88;2.85;;;23.50;99.90;;;;;;5027506;28;20046;-78
2022/08/01 08:03:14;;;;;;;5.32;2.60;;;23.50;99.90;;;;;;5027006;28;20128;-81
2022/08/01 08:05:41;;;;;;;3.28;2.40;;;23.60;99.90;;;;;;5021149;28;20096;-80
2022/08/01 08:08:25;;;;;;;6.15;2.90;;;23.70;99.90;;;;;;5025434;28;20213;-81
2022/08/01 08:10:52;;;;;;;4.75;2.42;;;23.70;99.90;;;;;;5026676;28;20085;-80
2022/08/01 08:13:19;;;;;;;2.80;2.40;;;23.80;99.90;;;;;;5029538;28;20129;-82
2022/08/01 08:15:47;;;;;;;4.55;2.53;;;23.80;99.90;;;;;;5028744;28;20457;-80
2022/08/01 08:18:14;;;;;;;4.63;2.65;;;23.80;99.90;;;;;;5025286;28;20050;-80
2022/08/01 08:20:41;;;;;;;6.05;2.47;;;23.90;99.90;;;;;;5028409;28;20046;-81
2022/08/01 08:26:09;;;;;;;5.47;2.53;;;24.00;99.90;;;;;;5029089;28;20045;-80
2022/08/01 08:28:37;;;;;;;3.75;2.38;;;24.00;99.90;;;;;;5027127;28;20100;-81
2022/08/01 08:31:06;;;;;;;2.53;2.28;;;24.20;99.90;;;;;;5029701;28;20496;-81
2022/08/01 08:33:51;;;;;;;3.28;2.83;;;24.20;99.90;;;;;;5021813;28;20049;-81
2022/08/01 08:36:18;;;;;;;4.90;3.13;;;24.30;99.90;;;;;;5024289;28;20075;-81
2022/08/01 08:38:45;;;;;;;2.38;2.17;;;24.40;99.90;;;;;;5026497;28;20049;-81
2022/08/01 08:41:12;;;;;;;2.95;2.38;;;24.40;99.90;;;;;;5029404;28;20086;-81
2022/08/01 08:43:43;;;;;;;7.57;2.22;;;24.50;99.90;;;;;;5022573;28;20049;-81
2022/08/01 08:46:11;;;;;;;4.63;2.25;;;24.50;99.90;;;;;;5027442;28;20598;-80
2022/08/01 08:48:40;;;;;;;5.38;2.60;;;24.60;99.90;;;;;;5024745;28;20053;-80
2022/08/01 08:51:10;;;;;;;2.70;2.22;;;24.70;99.90;;;;;;5026327;28;20053;-80
2022/08/01 08:53:43;;;;;;;3.63;2.85;;;24.80;99.90;;;;;;5024893;28;20554;-80
2022/08/01 08:56:14;;;;;;;3.83;2.40;;;24.90;99.90;;;;;;5026709;28;20103;-81
2022/08/01 08:58:43;;;;;;;5.57;2.65;;;24.90;99.90;;;;;;5029265;28;20052;-81
2022/08/01 09:01:10;;;;;;;2.88;2.38;;;25.00;99.90;;;;;;5024558;28;20045;-81
2022/08/01 09:03:37;;;;;;;2.55;2.28;;;25.00;99.90;;;;;;5031813;28;20144;-81
2022/08/01 09:06:04;;;;;;;3.13;2.25;;;25.10;99.90;;;;;;5028412;28;20129;-80
2022/08/01 09:08:30;;;;;;;2.80;2.60;;;25.10;99.90;;;;;;5032692;28;20336;-81
2022/08/01 09:10:57;;;;;;;3.80;2.53;;;25.10;99.90;;;;;;5032298;28;20112;-80
2022/08/01 09:13:24;;;;;;;2.67;2.10;;;25.20;99.90;;;;;;5031189;28;20113;-81
2022/08/01 09:15:53;;;;;;;4.38;2.58;;;25.20;99.90;;;;;;5026095;28;20495;-80
2022/08/01 09:18:28;;;;;;;4.45;2.28;;;25.30;99.90;;;;;;5023805;28;20462;-79
2022/08/01 09:21:19;;;;;;;2.63;2.22;;;25.40;99.90;;;;;;5026740;28;20081;-81
2022/08/01 09:23:48;;;;;;;5.00;2.10;;;25.40;99.90;;;;;;5027389;28;20554;-81
2022/08/01 09:26:31;;;;;;;3.65;2.42;;;25.50;99.90;;;;;;5023054;28;20519;-80
2022/08/01 09:29:02;;;;;;;4.93;2.40;;;25.50;99.90;;;;;;5026203;28;20120;-81
2022/08/01 09:31:42;;;;;;;4.40;2.70;;;25.50;99.90;;;;;;5018956;28;20052;-81
2022/08/01 09:34:14;;;;;;;4.18;2.05;;;25.50;99.90;;;;;;5027299;28;20499;-81
2022/08/01 09:36:56;;;;;;;4.07;2.25;;;25.50;99.90;;;;;;5025362;28;20042;-80
2022/08/01 09:39:26;;;;;;;7.47;2.28;;;25.50;99.90;;;;;;5024968;28;20085;-80
2022/08/01 09:41:55;;;;;;;4.15;2.20;;;25.50;99.90;;;;;;5028030;28;20081;-81
2022/08/01 09:44:43;;;;;;;3.25;2.05;;;25.60;99.90;;;;;;5026059;28;20137;-80
2022/08/01 09:47:21;;;;;;;2.85;1.88;;;25.60;99.90;;;;;;5023618;28;20050;-81
2022/08/01 09:49:57;;;;;;;2.75;2.17;;;25.70;99.90;;;;;;5025011;28;20058;-81
2022/08/01 09:52:26;;;;;;;2.30;2.00;;;25.70;99.90;;;;;;5016064;28;20054;-79
2022/08/01 09:55:00;;;;;;;3.13;1.92;;;25.80;99.90;;;;;;5026235;28;20136;-80
2022/08/01 09:57:28;;;;;;;1.77;1.67;;;25.80;99.90;;;;;;5027476;28;20120;-79
2022/08/01 09:59:59;;;;;;;2.83;1.63;;;25.80;99.90;;;;;;5029596;28;20052;-81
2022/08/01 10:02:27;;;;;;;4.32;2.08;;;25.80;99.90;;;;;;5024447;28;20072;-80
2022/08/01 10:04:55;;;;;;;1.65;1.55;;;25.90;99.90;;;;;;5023570;28;20104;-80
2022/08/01 10:07:29;;;;;;;3.60;1.88;;;25.90;99.90;;;;;;5018753;28;20103;-80
2022/08/01 10:10:15;;;;;;;4.40;1.67;;;25.90;99.90;;;;;;5021963;28;20054;-80
2022/08/01 10:12:42;;;;;;;5.22;1.88;;;26.00;99.90;;;;;;5028767;28;20434;-82
2022/08/01 10:15:16;;;;;;;2.65;1.70;;;26.00;99.90;;;;;;5030338;28;20491;-80
2022/08/01 10:17:52;;;;;;;3.90;1.42;;;26.10;99.90;;;;;;5028572;28;20080;-79
2022/08/01 10:20:26;;;;;;;4.70;1.67;;;26.10;99.90;;;;;;5027327;28;20050;-80
2022/08/01 10:23:03;;;;;;;2.10;1.40;;;26.10;99.90;;;;;;5025484;28;20722;-78
2022/08/01 10:25:40;;;;;;;3.20;1.80;;;26.20;99.90;;;;;;5030226;28;20076;-80
2022/08/01 10:28:18;;;;;;;3.20;1.50;;;26.20;99.90;;;;;;5030897;28;20073;-79
2022/08/01 10:30:50;;;;;;;2.17;1.50;;;26.20;99.90;;;;;;5028036;28;20060;-79
2022/08/01 10:33:21;;;;;;;1.75;1.42;;;26.20;99.90;;;;;;5015720;28;20045;-80
2022/08/01 10:36:09;;;;;;;4.63;1.48;;;26.20;99.90;;;;;;5021975;28;20054;-80
2022/08/01 10:38:36;;;;;;;3.13;1.88;;;26.30;99.90;;;;;;5017393;28;20045;-80
2022/08/01 10:41:05;;;;;;;2.40;1.75;;;26.40;99.90;;;;;;5027074;28;20422;-80
2022/08/01 10:43:35;;;;;;;2.45;1.77;;;26.40;99.90;;;;;;5026933;28;20058;-81
2022/08/01 10:46:03;;;;;;;3.30;1.55;;;26.50;99.90;;;;;;5030731;28;20049;-80
2022/08/01 10:48:50;;;;;;;3.60;1.70;;;26.60;99.90;;;;;;5026922;28;20113;-81
2022/08/01 10:51:21;;;;;;;3.88;1.48;;;26.50;99.90;;;;;;5015044;28;20050;-81
2022/08/01 10:54:09;;;;;;;;;;;26.70;99.90;;;;;;5026567;28;20069;-80
2022/08/01 10:56:42;;;;;;;2.92;1.10;;;26.70;99.90;;;;;;5028635;28;19921;-80
2022/08/01 10:59:20;;;;;;;2.25;1.75;;;26.80;99.90;;;;;;5022577;28;20049;-80
2022/08/01 11:02:08;;;;;;;1.45;1.35;;;26.80;99.90;;;;;;5020288;28;20140;-80
2022/08/01 11:04:58;;;;;;;4.82;1.30;;;26.90;99.90;;;;;;5023599;28;20058;-79
2022/08/01 11:07:47;;;;;;;3.60;1.40;;;26.90;99.90;;;;;;5028844;28;20109;-81
2022/08/01 11:10:23;;;;;;;1.48;1.38;;;27.00;99.90;;;;;;5024051;28;20055;-81
2022/08/01 11:12:52;;;;;;;2.63;1.42;;;27.10;99.90;;;;;;5030965;28;20133;-80
2022/08/01 11:15:30;;;;;;;3.95;1.33;;;27.10;99.90;;;;;;5026333;28;20045;-81
2022/08/01 11:18:03;;;;;;;1.83;1.60;;;27.10;99.90;;;;;;5020289;28;20100;-81
2022/08/01 11:20:37;;;;;;;2.95;1.50;;;27.10;99.90;;;;;;5027339;28;20053;-81
2022/08/01 11:23:20;;;;;;;1.60;1.45;;;27.20;99.90;;;;;;5029455;28;20056;-81
2022/08/01 11:25:49;;;;;;;2.15;1.52;;;27.20;99.90;;;;;;5026996;28;20050;-81
2022/08/01 11:28:32;;;;;;;6.43;1.73;;;27.30;99.90;;;;;;5020519;28;20050;-80
2022/08/01 11:31:02;;;;;;;;;;;27.40;99.90;;;;;;5018049;28;20049;-81
2022/08/01 11:33:42;;;;;;;3.53;1.45;;;27.50;99.90;;;;;;5024052;28;19985;-80
2022/08/01 11:36:12;;;;;;;3.88;1.48;;;27.60;99.90;;;;;;5028977;28;20076;-80
2022/08/01 11:38:46;;;;;;;2.53;1.40;;;27.70;99.90;;;;;;5028300;28;20408;-80
2022/08/01 11:41:20;;;;;;;1.90;1.45;;;27.70;99.90;;;;;;5023674;28;20502;-80
2022/08/01 11:44:14;;;;;;;1.48;1.20;;;27.80;99.90;;;;;;5016126;28;20072;-81
2022/08/01 11:47:03;;;;;;;1.48;1.27;;;27.90;99.90;;;;;;5020986;28;20080;-80
2022/08/01 11:49:44;;;;;;;1.42;1.30;;;28.00;99.90;;;;;;5033397;28;20095;-80
2022/08/01 11:52:24;;;;;;;1.47;1.27;;;28.00;99.90;;;;;;5037546;28;20052;-79
2022/08/01 11:55:05;;;;;;;1.73;1.30;;;28.10;99.90;;;;;;5025389;28;20046;-80
2022/08/01 11:57:37;;;;;;;1.70;1.13;;;28.20;99.90;;;;;;5024174;28;20041;-80
2022/08/01 12:00:10;;;;;;;2.22;1.50;;;28.30;99.90;;;;;;5023636;28;20087;-81
2022/08/01 12:02:43;;;;;;;2.78;1.30;;;28.40;99.90;;;;;;5024803;28;20072;-79
2022/08/01 12:05:17;;;;;;;3.80;1.30;;;28.50;99.90;;;;;;5028872;28;20049;-81
2022/08/01 12:07:48;;;;;;;1.55;1.10;;;28.50;99.90;;;;;;5026068;28;20285;-81
2022/08/01 12:10:17;;;;;;;3.28;1.10;;;28.50;99.90;;;;;;5020382;28;20492;-81
2022/08/01 12:12:48;;;;;;;1.15;0.88;;;28.60;99.90;;;;;;5015034;28;20060;-80
2022/08/01 12:15:16;;;;;;;1.45;0.80;;;28.70;99.90;;;;;;5026174;28;20041;-81
2022/08/01 12:17:43;;;;;;;5.00;1.23;;;28.80;99.90;;;;;;5022596;28;20041;-82
2022/08/01 12:20:25;;;;;;;6.05;1.20;;;28.80;99.90;;;;;;5014186;28;20054;-80
2022/08/01 12:22:57;;;;;;;1.92;0.98;;;28.90;99.90;;;;;;5020638;28;20100;-82
2022/08/01 12:25:24;;;;;;;1.80;1.20;;;29.00;99.90;;;;;;5026593;28;20049;-80
2022/08/01 12:27:52;;;;;;;1.55;1.23;;;29.10;99.90;;;;;;5028644;28;20422;-80
2022/08/01 12:30:23;;;;;;;3.60;1.15;;;29.20;99.90;;;;;;5020285;28;20060;-81
2022/08/01 12:32:52;;;;;;;1.85;1.38;;;29.30;99.90;;;;;;5027948;28;20495;-82
2022/08/01 12:35:22;;;;;;;1.90;1.15;;;29.30;99.90;;;;;;5023422;28;20121;-81
2022/08/01 12:37:52;;;;;;;1.63;1.08;;;29.40;99.90;;;;;;5022902;28;20053;-81
2022/08/01 12:40:35;;;;;;;2.53;1.20;;;29.40;99.90;;;;;;5023574;28;20565;-80
2022/08/01 12:43:06;;;;;;;5.05;1.33;;;29.40;99.90;;;;;;5028755;28;20052;-82
2022/08/01 12:45:43;;;;;;;1.30;1.00;;;29.40;99.90;;;;;;5028738;28;20589;-81
2022/08/01 12:48:24;;;;;;;3.00;1.00;;;29.40;99.90;;;;;;5024622;28;20050;-82
2022/08/01 12:50:52;;;;;;;2.65;1.27;;;29.50;99.90;;;;;;5035304;28;20061;-81
2022/08/01 12:53:20;;;;;;;3.20;1.10;;;29.60;99.90;;;;;;5032440;28;20507;-82
2022/08/01 12:55:50;;;;;;;3.10;1.00;;;29.60;99.90;;;;;;5031987;28;20500;-82
2022/08/01 12:58:29;;;;;;;3.42;1.33;;;29.60;99.90;;;;;;5025140;28;20054;-82
2022/08/01 13:01:11;;;;;;;1.92;1.48;;;29.70;99.90;;;;;;5032220;28;20102;-82
2022/08/01 13:03:39;;;;;;;2.30;1.20;;;29.80;99.90;;;;;;5030747;28;20046;-80
2022/08/01 13:06:14;;;;;;;7.25;1.33;;;29.70;99.90;;;;;;5033924;28;20077;-82
2022/08/01 13:08:44;;;;;;;1.77;1.55;;;29.70;99.90;;;;;;5041376;28;20085;-81
2022/08/01 13:11:15;;;;;;;6.30;1.30;;;29.70;99.90;;;;;;5031576;28;20054;-82